Time;durP1;ratioP1;P1;durP2;ratioP2;P2;SDS_P1;SDS_P2;PMS_P1;PMS_P2;Temp;Humidity;BMP_temperature;BMP_pressure;BME280_temperature;BME280_humidity;BME280_pressure;Samples;Min_cycle;Max_cycle;Signal;HPM_P1;HPM_P2
2021/07/24 00:01:08;;;;;;;5.65;4.57;;;25.30;54.80;;;;;;5013791;28;20025;-60
2021/07/24 00:03:33;;;;;;;5.05;4.22;;;25.20;54.80;;;;;;5013771;28;20022;-61
2021/07/24 00:06:00;;;;;;;5.10;4.60;;;25.30;54.90;;;;;;5013566;28;20072;-58
2021/07/24 00:08:25;;;;;;;5.18;4.20;;;25.30;54.90;;;;;;5013529;28;20084;-60
2021/07/24 00:10:51;;;;;;;4.90;4.25;;;25.30;55.00;;;;;;5013546;28;20022;-61
2021/07/24 00:13:17;;;;;;;4.82;4.13;;;25.20;54.90;;;;;;5013532;28;20470;-61
2021/07/24 00:15:42;;;;;;;4.55;4.13;;;25.20;54.90;;;;;;5013485;28;20461;-60
2021/07/24 00:18:08;;;;;;;4.40;4.00;;;25.20;55.00;;;;;;5013678;28;20022;-58
2021/07/24 00:20:34;;;;;;;5.03;3.88;;;25.30;55.00;;;;;;5013396;28;20026;-60
2021/07/24 00:22:59;;;;;;;4.30;3.90;;;25.20;55.10;;;;;;5013344;28;20462;-60
2021/07/24 00:25:25;;;;;;;4.53;3.65;;;25.20;55.10;;;;;;5013345;28;20050;-60
2021/07/24 00:27:51;;;;;;;4.45;3.90;;;25.30;55.10;;;;;;5012475;28;20030;-61
2021/07/24 00:30:16;;;;;;;5.25;4.80;;;25.20;55.10;;;;;;5013295;28;20022;-61
2021/07/24 00:32:42;;;;;;;4.28;3.97;;;25.20;55.10;;;;;;5013224;28;20022;-60
2021/07/24 00:35:08;;;;;;;5.28;4.25;;;25.20;55.10;;;;;;5013016;28;20118;-61
2021/07/24 00:37:33;;;;;;;4.80;4.30;;;25.20;55.10;;;;;;5013178;28;20062;-60
2021/07/24 00:39:59;;;;;;;4.97;4.22;;;25.20;55.20;;;;;;5012994;28;20046;-59
2021/07/24 00:42:26;;;;;;;5.13;3.92;;;25.20;55.20;;;;;;5013053;28;20104;-60
2021/07/24 00:44:57;;;;;;;4.60;4.20;;;25.10;55.10;;;;;;5013258;28;20018;-60
2021/07/24 00:47:32;;;;;;;5.30;4.25;;;25.20;55.20;;;;;;5012825;28;20083;-60
2021/07/24 00:49:59;;;;;;;4.80;3.70;;;25.20;55.20;;;;;;5012802;28;20363;-60
2021/07/24 00:52:25;;;;;;;4.40;4.10;;;25.20;55.20;;;;;;5012719;28;20026;-60
2021/07/24 00:54:51;;;;;;;3.97;3.58;;;25.10;55.20;;;;;;5012576;28;20041;-60
2021/07/24 00:57:16;;;;;;;4.43;4.03;;;25.10;55.20;;;;;;5012701;28;20026;-60
2021/07/24 00:59:42;;;;;;;4.60;4.05;;;25.10;55.20;;;;;;5012608;28;20502;-60
2021/07/24 01:02:08;;;;;;;4.07;3.67;;;25.10;55.20;;;;;;5012594;28;20022;-60
2021/07/24 01:04:34;;;;;;;4.93;4.05;;;25.10;55.20;;;;;;5012555;28;20025;-60
2021/07/24 01:07:03;;;;;;;4.18;3.80;;;25.10;55.20;;;;;;5012505;28;20060;-60
2021/07/24 01:09:32;;;;;;;4.57;4.18;;;25.10;55.20;;;;;;5012360;28;20103;-60
2021/07/24 01:11:57;;;;;;;4.80;3.85;;;25.10;55.20;;;;;;5012447;28;20093;-60
2021/07/24 01:14:23;;;;;;;4.43;3.85;;;25.10;55.30;;;;;;5012358;28;20125;-60
2021/07/24 01:16:49;;;;;;;4.10;3.70;;;25.10;55.30;;;;;;5012423;28;20026;-60
2021/07/24 01:19:15;;;;;;;6.80;3.95;;;25.20;55.40;;;;;;5012337;28;20084;-60
2021/07/24 01:21:41;;;;;;;4.07;3.67;;;25.10;55.30;;;;;;5012331;28;20102;-60
2021/07/24 01:24:06;;;;;;;4.68;4.00;;;25.10;55.40;;;;;;5012308;28;20189;-60
2021/07/24 01:26:34;;;;;;;4.03;3.70;;;25.00;55.30;;;;;;5012378;28;20410;-60
2021/07/24 01:29:01;;;;;;;4.53;4.07;;;25.00;55.30;;;;;;5012360;28;20038;-60
2021/07/24 01:31:27;;;;;;;4.53;4.13;;;25.10;55.40;;;;;;5012286;28;20022;-60
2021/07/24 01:33:52;;;;;;;3.75;3.45;;;25.00;55.30;;;;;;5012203;28;20541;-60
2021/07/24 01:36:18;;;;;;;4.80;3.55;;;25.00;56.00;;;;;;5012276;28;20461;-60
2021/07/24 01:38:44;;;;;;;4.30;3.88;;;25.00;55.30;;;;;;5013562;28;20100;-60
2021/07/24 01:41:11;;;;;;;4.35;3.95;;;25.00;55.40;;;;;;5016148;28;20084;-60
2021/07/24 01:43:38;;;;;;;4.20;3.80;;;25.00;55.50;;;;;;5016449;28;20139;-60
2021/07/24 01:46:04;;;;;;;4.25;3.95;;;25.10;55.40;;;;;;5015938;28;20026;-60
2021/07/24 01:48:40;;;;;;;4.78;3.97;;;25.00;55.40;;;;;;5016681;28;20110;-60
2021/07/24 01:53:53;;;;;;;4.65;3.92;;;25.20;55.50;;;;;;5016166;28;20104;-60
2021/07/24 01:56:22;;;;;;;3.88;3.58;;;24.90;55.40;;;;;;5016052;28;20021;-60
2021/07/24 01:58:47;;;;;;;5.50;3.90;;;25.00;55.50;;;;;;5015844;28;20022;-60
2021/07/24 02:01:15;;;;;;;4.25;3.85;;;25.00;55.40;;;;;;5016034;28;20022;-60
2021/07/24 02:03:45;;;;;;;4.30;3.88;;;25.00;55.50;;;;;;5015774;28;20037;-59
2021/07/24 02:06:11;;;;;;;;;;;25.00;55.50;;;;;;5016127;28;20072;-60
2021/07/24 02:08:38;;;;;;;4.47;3.88;;;25.00;55.40;;;;;;5015879;28;19959;-60
2021/07/24 02:11:05;;;;;;;3.58;3.28;;;25.20;55.60;;;;;;5015691;28;20018;-61
2021/07/24 02:13:30;;;;;;;5.18;4.07;;;24.90;55.40;;;;;;5015543;28;20034;-60
2021/07/24 02:15:56;;;;;;;4.43;4.03;;;24.90;55.40;;;;;;5015590;28;20101;-60
2021/07/24 02:18:23;;;;;;;4.10;3.70;;;24.90;55.40;;;;;;5015492;28;20049;-60
2021/07/24 02:20:49;;;;;;;4.97;4.18;;;24.90;55.40;;;;;;5015499;28;20014;-60
2021/07/24 02:23:16;;;;;;;4.40;4.03;;;24.90;55.50;;;;;;5015309;28;20026;-60
2021/07/24 02:25:43;;;;;;;4.53;4.05;;;24.90;55.50;;;;;;5015385;28;20029;-60
2021/07/24 02:28:08;;;;;;;3.95;3.55;;;24.90;55.50;;;;;;5015321;28;20018;-60
2021/07/24 02:30:34;;;;;;;4.03;3.63;;;24.90;55.40;;;;;;5015194;28;20498;-60
2021/07/24 02:33:00;;;;;;;4.70;4.30;;;24.90;55.50;;;;;;5015471;28;20022;-60
2021/07/24 02:35:26;;;;;;;4.15;3.75;;;24.90;55.50;;;;;;5015057;28;20038;-60
2021/07/24 02:37:52;;;;;;;4.30;3.90;;;25.00;55.50;;;;;;5015147;28;20014;-60
2021/07/24 02:40:18;;;;;;;3.95;3.65;;;24.90;56.10;;;;;;5015318;28;20105;-60
2021/07/24 02:42:44;;;;;;;4.22;3.83;;;24.90;55.50;;;;;;5015343;28;20021;-60
2021/07/24 02:45:10;;;;;;;4.40;3.65;;;24.90;55.50;;;;;;5015349;28;20417;-60
2021/07/24 02:47:36;;;;;;;3.75;3.45;;;24.90;55.40;;;;;;5014863;28;20033;-60
2021/07/24 02:50:02;;;;;;;4.15;3.70;;;24.90;55.50;;;;;;5014120;28;20145;-60
2021/07/24 02:52:27;;;;;;;3.88;3.58;;;24.90;55.50;;;;;;5014817;28;20030;-60
2021/07/24 02:54:53;;;;;;;4.50;3.78;;;24.90;55.50;;;;;;5014791;28;20037;-60
2021/07/24 02:57:19;;;;;;;4.35;3.95;;;24.90;55.50;;;;;;5014833;28;20088;-60
2021/07/24 02:59:45;;;;;;;3.65;3.35;;;24.90;55.50;;;;;;5014759;28;20395;-60
2021/07/24 03:02:13;;;;;;;5.90;3.97;;;24.80;55.50;;;;;;5015043;28;20024;-60
2021/07/24 03:04:39;;;;;;;3.58;3.28;;;24.90;55.60;;;;;;5014685;28;20045;-60
2021/07/24 03:07:04;;;;;;;3.80;3.50;;;24.90;55.50;;;;;;5014658;28;20026;-60
2021/07/24 03:09:30;;;;;;;4.75;3.65;;;24.80;55.50;;;;;;5014519;28;20060;-60
2021/07/24 03:11:55;;;;;;;3.75;3.45;;;24.80;55.50;;;;;;5014538;28;20602;-60
2021/07/24 03:14:21;;;;;;;4.50;4.10;;;24.80;55.50;;;;;;5014381;28;20084;-60
2021/07/24 03:16:46;;;;;;;4.35;3.92;;;24.80;55.50;;;;;;5014438;28;20022;-60
2021/07/24 03:19:12;;;;;;;4.57;4.05;;;24.90;55.60;;;;;;5014403;28;20041;-60
2021/07/24 03:21:38;;;;;;;3.75;3.45;;;24.80;55.50;;;;;;5014344;28;20363;-60
2021/07/24 03:24:03;;;;;;;4.80;4.38;;;24.80;55.50;;;;;;5014260;28;20030;-60
2021/07/24 03:26:29;;;;;;;4.13;3.72;;;24.80;55.50;;;;;;5014278;28;20018;-61
2021/07/24 03:28:54;;;;;;;4.43;3.75;;;24.80;55.50;;;;;;5014491;28;20474;-58
2021/07/24 03:31:20;;;;;;;4.65;4.10;;;24.80;55.50;;;;;;5014195;28;20037;-59
2021/07/24 03:33:46;;;;;;;4.25;3.85;;;24.80;55.50;;;;;;5014101;28;20041;-60
2021/07/24 03:36:11;;;;;;;5.55;3.90;;;24.80;55.50;;;;;;5014078;28;20026;-60
2021/07/24 03:38:37;;;;;;;6.32;4.10;;;24.80;55.50;;;;;;5014020;28;20026;-60
2021/07/24 03:41:04;;;;;;;4.90;4.35;;;24.80;55.50;;;;;;5014022;28;20022;-60
2021/07/24 03:43:30;;;;;;;4.72;4.13;;;24.70;55.50;;;;;;5014023;28;20057;-60
2021/07/24 03:45:56;;;;;;;4.10;3.80;;;24.80;55.60;;;;;;5013882;28;20105;-60
2021/07/24 03:48:21;;;;;;;4.57;4.05;;;24.80;55.60;;;;;;5013791;28;20124;-60
2021/07/24 03:50:47;;;;;;;4.97;4.55;;;24.80;55.60;;;;;;5013816;28;20029;-59
2021/07/24 03:53:12;;;;;;;3.92;3.63;;;24.80;55.60;;;;;;5013979;28;20025;-60
2021/07/24 03:55:38;;;;;;;4.00;3.70;;;24.80;55.60;;;;;;5013741;28;20566;-60
2021/07/24 03:58:04;;;;;;;4.45;3.67;;;24.70;55.50;;;;;;5013698;28;20033;-60
2021/07/24 04:00:50;;;;;;;3.78;3.35;;;24.70;55.60;;;;;;5013625;28;20026;-60
2021/07/24 04:03:17;;;;;;;4.68;4.25;;;24.70;55.50;;;;;;5013132;28;20116;-59
2021/07/24 04:05:44;;;;;;;4.18;3.78;;;24.70;55.60;;;;;;5014019;28;20076;-60
2021/07/24 04:08:11;;;;;;;4.38;3.97;;;24.70;55.60;;;;;;5013424;28;20026;-60
2021/07/24 04:10:40;;;;;;;4.32;3.92;;;24.70;55.60;;;;;;5013455;28;20022;-60
2021/07/24 04:13:06;;;;;;;4.57;3.85;;;24.70;55.60;;;;;;5013433;28;20030;-60
2021/07/24 04:15:33;;;;;;;4.18;3.83;;;24.70;55.60;;;;;;5013303;28;20033;-60
2021/07/24 04:17:59;;;;;;;4.35;3.95;;;24.70;55.70;;;;;;5013178;28;20026;-60
2021/07/24 04:20:26;;;;;;;4.43;4.03;;;24.70;55.70;;;;;;5013594;28;20026;-60
2021/07/24 04:22:51;;;;;;;4.20;3.80;;;24.70;55.70;;;;;;5013258;28;20025;-60
2021/07/24 04:25:17;;;;;;;4.50;4.10;;;24.70;55.70;;;;;;5013219;28;20026;-60
2021/07/24 04:27:44;;;;;;;4.85;4.30;;;24.70;55.80;;;;;;5013167;28;20038;-60
2021/07/24 04:30:10;;;;;;;4.50;4.10;;;24.70;55.80;;;;;;5013093;28;20080;-60
2021/07/24 04:32:36;;;;;;;4.10;3.80;;;24.70;55.80;;;;;;5013089;28;20037;-60
2021/07/24 04:35:03;;;;;;;4.28;3.88;;;24.70;55.70;;;;;;5013205;28;20042;-60
2021/07/24 04:37:29;;;;;;;4.50;4.10;;;24.70;55.80;;;;;;5013044;28;20374;-60
2021/07/24 04:39:55;;;;;;;3.92;3.63;;;24.70;55.80;;;;;;5012918;28;20502;-60
2021/07/24 04:42:20;;;;;;;4.57;4.05;;;24.70;55.80;;;;;;5012947;28;20053;-60
2021/07/24 04:44:46;;;;;;;4.20;3.80;;;24.80;55.80;;;;;;5012865;28;20425;-60
2021/07/24 04:47:12;;;;;;;3.97;3.67;;;24.70;55.80;;;;;;5012826;28;20118;-60
2021/07/24 04:49:47;;;;;;;4.80;4.32;;;24.60;55.80;;;;;;5012806;28;20056;-60
2021/07/24 04:52:13;;;;;;;4.38;3.97;;;24.60;55.80;;;;;;5012802;28;20026;-60
2021/07/24 04:54:40;;;;;;;4.20;3.80;;;24.70;55.90;;;;;;5012670;28;20040;-60
2021/07/24 04:57:06;;;;;;;6.50;3.70;;;24.60;55.90;;;;;;5012676;28;20052;-60
2021/07/24 04:59:31;;;;;;;4.03;3.60;;;24.60;55.90;;;;;;5012733;28;20104;-60
2021/07/24 05:01:57;;;;;;;4.18;3.72;;;24.60;55.90;;;;;;5012625;28;20037;-60
2021/07/24 05:04:23;;;;;;;4.50;3.88;;;24.60;55.90;;;;;;5012676;28;20026;-60
2021/07/24 05:06:48;;;;;;;4.00;3.63;;;24.60;55.90;;;;;;5012611;28;20026;-60
2021/07/24 05:09:14;;;;;;;4.55;4.10;;;24.50;55.90;;;;;;5012507;28;20030;-59
2021/07/24 05:11:39;;;;;;;4.32;3.92;;;24.60;56.00;;;;;;5012587;28;20022;-60
2021/07/24 05:14:05;;;;;;;4.05;3.70;;;24.60;56.00;;;;;;5011891;28;20022;-60
2021/07/24 05:16:30;;;;;;;4.07;3.40;;;24.60;56.00;;;;;;5012492;28;20018;-60
2021/07/24 05:18:58;;;;;;;3.90;3.60;;;24.60;56.00;;;;;;5012457;28;20045;-60
2021/07/24 05:21:24;;;;;;;6.13;4.03;;;24.60;56.00;;;;;;5012493;28;20025;-60
2021/07/24 05:23:49;;;;;;;5.40;4.07;;;24.50;56.00;;;;;;5012431;28;20030;-60
2021/07/24 05:26:15;;;;;;;4.47;4.07;;;24.60;56.00;;;;;;5012584;28;20018;-60
2021/07/24 05:28:42;;;;;;;4.20;3.75;;;24.40;55.90;;;;;;5012413;28;20523;-60
2021/07/24 05:31:21;;;;;;;3.85;3.55;;;24.50;55.90;;;;;;5012289;28;20038;-60
2021/07/24 05:33:47;;;;;;;4.15;3.75;;;24.50;56.00;;;;;;5012316;28;20080;-60
2021/07/24 05:36:12;;;;;;;4.30;3.90;;;24.60;56.00;;;;;;5012243;28;20026;-60
2021/07/24 05:38:38;;;;;;;4.82;3.85;;;24.50;56.00;;;;;;5012352;28;20022;-60
2021/07/24 05:41:04;;;;;;;4.60;3.60;;;24.50;56.00;;;;;;5012220;28;20022;-60
2021/07/24 05:43:30;;;;;;;3.85;3.55;;;24.60;56.00;;;;;;5012254;28;20062;-60
2021/07/24 05:45:58;;;;;;;4.28;3.88;;;24.50;56.00;;;;;;5012200;28;20026;-60
2021/07/24 05:48:23;;;;;;;4.53;3.97;;;24.60;56.00;;;;;;5012072;28;20037;-60
2021/07/24 05:50:49;;;;;;;4.80;4.15;;;24.90;83.00;;;;;;5012175;28;20018;-60
2021/07/24 05:53:14;;;;;;;5.45;3.80;;;24.50;56.10;;;;;;5011959;28;20119;-60
2021/07/24 05:55:40;;;;;;;4.07;3.78;;;24.60;56.10;;;;;;5012109;28;20080;-60
2021/07/24 05:58:09;;;;;;;4.70;3.97;;;24.50;56.10;;;;;;5012093;28;20022;-60
2021/07/24 06:00:34;;;;;;;4.63;3.75;;;24.50;56.10;;;;;;5011999;28;20517;-60
2021/07/24 06:03:00;;;;;;;3.90;3.50;;;24.50;56.10;;;;;;5012028;28;20022;-60
2021/07/24 06:05:25;;;;;;;4.60;4.05;;;24.50;56.20;;;;;;5011930;28;20056;-60
2021/07/24 06:07:51;;;;;;;5.03;4.28;;;24.60;84.50;;;;;;5011907;28;20018;-60
2021/07/24 06:10:16;;;;;;;4.25;3.70;;;24.50;56.20;;;;;;5011911;28;20110;-60
2021/07/24 06:12:49;;;;;;;3.70;3.35;;;24.60;56.20;;;;;;5011927;28;20165;-60
2021/07/24 06:15:14;;;;;;;4.25;3.88;;;24.60;56.20;;;;;;5011898;28;20453;-60
2021/07/24 06:17:40;;;;;;;3.42;3.13;;;24.60;85.10;;;;;;5011959;28;20069;-60
2021/07/24 06:20:06;;;;;;;4.15;3.75;;;24.70;85.60;;;;;;5011878;28;20088;-60
2021/07/24 06:22:31;;;;;;;3.90;3.50;;;24.20;85.10;;;;;;5011823;28;20076;-60
2021/07/24 06:24:57;;;;;;;4.13;3.80;;;24.40;85.60;;;;;;5011900;28;20061;-60
2021/07/24 06:27:23;;;;;;;4.13;3.72;;;24.50;56.30;;;;;;5015320;28;20069;-60
2021/07/24 06:29:48;;;;;;;4.50;3.50;;;24.60;85.40;;;;;;5015376;28;20033;-60
2021/07/24 06:32:14;;;;;;;4.28;3.88;;;24.50;56.30;;;;;;5015284;28;20037;-60
2021/07/24 06:34:39;;;;;;;4.00;3.70;;;24.80;85.90;;;;;;5015117;28;20038;-60
2021/07/24 06:37:05;;;;;;;4.18;3.78;;;24.50;56.40;;;;;;5015158;28;20045;-61
2021/07/24 06:39:31;;;;;;;3.67;3.38;;;24.70;85.40;;;;;;5015137;28;20030;-60
2021/07/24 06:41:56;;;;;;;4.30;3.90;;;24.80;86.20;;;;;;4997543;28;20421;-60
2021/07/24 06:44:23;;;;;;;4.18;3.55;;;24.30;85.90;;;;;;5015046;28;20554;-60
2021/07/24 06:46:48;;;;;;;3.90;3.50;;;24.50;56.60;;;;;;5014918;28;20026;-60
2021/07/24 06:49:14;;;;;;;3.20;2.90;;;24.30;86.00;;;;;;5014957;28;20025;-60
2021/07/24 06:51:39;;;;;;;4.80;3.58;;;24.60;56.60;;;;;;5014913;28;20030;-60
2021/07/24 06:54:05;;;;;;;3.70;3.40;;;24.50;56.60;;;;;;5014862;28;20080;-60
2021/07/24 06:56:33;;;;;;;4.40;3.95;;;24.50;56.60;;;;;;5014876;28;20085;-59
2021/07/24 06:58:59;;;;;;;7.43;3.92;;;24.60;56.80;;;;;;5014859;28;20378;-60
2021/07/24 07:01:24;;;;;;;3.70;3.38;;;24.50;56.90;;;;;;5014525;28;20053;-60
2021/07/24 07:03:50;;;;;;;9.15;3.75;;;24.10;86.60;;;;;;5014729;28;20064;-60
2021/07/24 07:06:16;;;;;;;3.97;3.58;;;23.50;56.50;;;;;;5014704;28;20029;-60
2021/07/24 07:08:42;;;;;;;5.50;3.70;;;24.50;87.90;;;;;;5014835;28;20109;-60
2021/07/24 07:11:08;;;;;;;6.05;4.18;;;24.90;57.20;;;;;;5014737;28;20022;-60
2021/07/24 07:13:34;;;;;;;8.20;4.20;;;24.50;57.00;;;;;;5014516;28;20466;-60
2021/07/24 07:16:04;;;;;;;4.93;3.63;;;24.50;57.10;;;;;;5014559;28;20413;-60
2021/07/24 07:18:30;;;;;;;4.90;4.07;;;24.40;87.50;;;;;;5014530;28;20061;-60
2021/07/24 07:20:55;;;;;;;5.80;3.63;;;24.50;57.30;;;;;;5014418;28;20030;-60
2021/07/24 07:23:21;;;;;;;8.05;3.60;;;24.60;88.40;;;;;;5014284;28;20084;-60
2021/07/24 07:25:47;;;;;;;4.07;3.63;;;24.50;57.30;;;;;;5014229;28;20104;-60
2021/07/24 07:28:13;;;;;;;5.15;3.80;;;24.60;57.40;;;;;;5014219;28;20104;-60
2021/07/24 07:30:38;;;;;;;3.63;3.33;;;24.60;57.40;;;;;;5014181;28;20041;-61
2021/07/24 07:33:04;;;;;;;4.10;3.70;;;24.50;57.50;;;;;;5014222;28;20030;-60
2021/07/24 07:35:29;;;;;;;3.85;3.40;;;24.50;57.50;;;;;;5013979;28;20038;-60
2021/07/24 07:37:56;;;;;;;9.50;3.50;;;24.50;57.50;;;;;;5013708;28;20105;-60
2021/07/24 07:40:22;;;;;;;4.88;4.05;;;24.50;57.60;;;;;;5014073;28;20018;-60
2021/07/24 07:42:48;;;;;;;5.30;3.53;;;24.50;88.70;;;;;;5013945;28;20026;-60
2021/07/24 07:45:13;;;;;;;4.63;3.55;;;24.70;57.70;;;;;;5014250;28;20021;-60
2021/07/24 07:47:39;;;;;;;4.00;3.70;;;24.50;57.80;;;;;;5013901;28;20490;-60
2021/07/24 07:50:06;;;;;;;5.65;3.50;;;24.60;57.90;;;;;;5014062;28;20025;-60
2021/07/24 07:52:32;;;;;;;5.70;3.65;;;24.50;88.00;;;;;;5013891;28;20092;-60
2021/07/24 07:54:59;;;;;;;5.30;3.70;;;24.70;58.30;;;;;;5013875;28;20034;-60
2021/07/24 07:57:25;;;;;;;4.82;3.53;;;24.50;57.90;;;;;;5014228;28;20033;-60
2021/07/24 07:59:51;;;;;;;8.38;4.10;;;24.70;88.50;;;;;;5013915;28;20083;-60
2021/07/24 08:02:17;;;;;;;6.40;4.22;;;24.60;58.00;;;;;;5013824;28;20050;-60
2021/07/24 08:04:42;;;;;;;6.55;3.50;;;24.60;58.20;;;;;;5013821;28;20506;-61
2021/07/24 08:07:08;;;;;;;7.05;4.13;;;24.60;58.10;;;;;;5013801;28;20026;-60
2021/07/24 08:09:33;;;;;;;3.90;3.47;;;24.60;58.20;;;;;;5013599;28;20026;-60
2021/07/24 08:11:59;;;;;;;7.25;4.07;;;24.70;58.30;;;;;;5013589;28;20075;-60
2021/07/24 08:14:24;;;;;;;4.45;4.05;;;24.60;58.20;;;;;;5013482;28;20041;-59
2021/07/24 08:16:50;;;;;;;4.38;3.72;;;24.70;88.50;;;;;;5013512;28;20021;-60
2021/07/24 08:19:16;;;;;;;5.40;3.92;;;24.20;89.40;;;;;;5013515;28;20097;-60
2021/07/24 08:21:41;;;;;;;7.35;3.65;;;24.60;58.10;;;;;;5013480;28;20022;-60
2021/07/24 08:24:07;;;;;;;5.60;3.63;;;24.60;58.10;;;;;;5013437;28;20072;-60
2021/07/24 08:26:32;;;;;;;4.57;3.90;;;24.50;58.40;;;;;;5013424;28;20032;-60
2021/07/24 08:28:58;;;;;;;4.63;3.85;;;24.30;89.50;;;;;;5013294;28;20041;-60
2021/07/24 08:31:23;;;;;;;7.00;4.10;;;24.50;58.60;;;;;;5013629;28;20108;-60
2021/07/24 08:33:49;;;;;;;3.88;3.50;;;24.70;59.20;;;;;;5013170;28;20040;-60
2021/07/24 08:36:14;;;;;;;5.30;3.60;;;24.70;58.40;;;;;;5013249;28;20068;-60
2021/07/24 08:38:40;;;;;;;4.80;3.58;;;24.50;58.60;;;;;;5013141;28;20017;-60
2021/07/24 08:41:05;;;;;;;4.13;3.72;;;24.30;90.10;;;;;;5012954;28;20025;-60
2021/07/24 08:43:31;;;;;;;6.57;3.53;;;24.60;58.50;;;;;;5013064;28;20030;-60
2021/07/24 08:45:57;;;;;;;4.68;3.65;;;24.60;58.40;;;;;;5012892;28;20030;-60
2021/07/24 08:48:23;;;;;;;6.05;3.75;;;24.60;58.60;;;;;;5012218;28;20026;-60
2021/07/24 08:50:50;;;;;;;4.70;3.58;;;24.70;58.60;;;;;;5013001;28;20026;-60
2021/07/24 08:53:24;;;;;;;4.45;3.75;;;24.60;58.60;;;;;;5012851;28;20022;-60
2021/07/24 08:55:59;;;;;;;3.67;3.33;;;24.30;89.90;;;;;;5012831;28;20030;-60
2021/07/24 08:58:25;;;;;;;5.45;3.95;;;24.80;58.60;;;;;;5012893;28;20446;-59
2021/07/24 09:00:51;;;;;;;5.30;3.60;;;24.60;58.60;;;;;;5012801;28;20044;-59
2021/07/24 09:03:19;;;;;;;5.65;3.67;;;24.60;58.50;;;;;;5012780;28;20013;-60
2021/07/24 09:05:50;;;;;;;4.78;3.90;;;24.70;58.50;;;;;;5012801;28;20026;-59
2021/07/24 09:08:17;;;;;;;5.90;3.90;;;24.50;57.80;;;;;;5012639;28;20046;-59
2021/07/24 09:10:45;;;;;;;5.88;4.30;;;24.70;58.40;;;;;;5012903;28;20196;-59
2021/07/24 09:13:10;;;;;;;5.03;3.40;;;24.60;88.70;;;;;;5012981;28;20057;-59
2021/07/24 09:15:36;;;;;;;5.40;3.60;;;24.90;58.10;;;;;;5012678;28;20439;-59
2021/07/24 09:18:02;;;;;;;4.63;3.92;;;24.70;58.00;;;;;;5012731;28;20100;-59
2021/07/24 09:20:28;;;;;;;4.95;3.90;;;24.70;58.00;;;;;;5012960;28;20061;-59
2021/07/24 09:22:54;;;;;;;4.25;3.85;;;24.70;57.80;;;;;;5012425;28;20105;-58
2021/07/24 09:25:21;;;;;;;4.40;4.00;;;24.70;57.90;;;;;;5012417;28;20068;-59
2021/07/24 09:27:52;;;;;;;5.55;3.95;;;24.60;57.80;;;;;;5012616;28;20030;-59
2021/07/24 09:30:32;;;;;;;5.43;3.75;;;24.70;57.70;;;;;;5012486;28;20445;-59
2021/07/24 09:33:01;;;;;;;;;;;24.70;57.70;;;;;;5012945;28;20022;-59
2021/07/24 09:35:43;;;;;;;7.35;4.57;;;24.70;58.30;;;;;;5012440;28;20020;-59
2021/07/24 09:38:11;;;;;;;10.00;4.43;;;24.80;59.00;;;;;;5012475;28;20103;-59
2021/07/24 09:40:38;;;;;;;7.78;4.45;;;24.70;59.30;;;;;;5012469;28;20030;-59
2021/07/24 09:43:24;;;;;;;4.93;4.10;;;24.80;60.00;;;;;;5012429;28;20021;-58
2021/07/24 09:46:10;;;;;;;9.77;4.35;;;24.70;60.50;;;;;;5012283;28;20040;-59
2021/07/24 09:48:36;;;;;;;12.30;4.65;;;24.80;62.10;;;;;;5010660;28;20033;-59
2021/07/24 09:51:01;;;;;;;11.75;5.35;;;24.80;61.00;;;;;;5010660;28;20029;-59
2021/07/24 09:53:38;;;;;;;7.40;4.55;;;24.80;60.40;;;;;;5010356;28;20021;-59
2021/07/24 09:56:04;;;;;;;7.38;5.07;;;24.80;61.00;;;;;;5010318;28;20117;-58
2021/07/24 09:58:30;;;;;;;10.52;4.78;;;24.80;60.60;;;;;;5010586;28;20407;-59
2021/07/24 10:01:04;;;;;;;6.15;4.95;;;24.80;60.90;;;;;;5015661;28;20101;-59
2021/07/24 10:03:31;;;;;;;8.93;4.45;;;24.80;60.90;;;;;;5016165;28;20014;-58
2021/07/24 10:06:28;;;;;;;7.53;4.25;;;24.90;61.30;;;;;;5016226;28;20030;-60
2021/07/24 10:08:58;;;;;;;7.05;4.40;;;24.60;88.60;;;;;;5015975;28;20022;-60
2021/07/24 10:11:27;;;;;;;7.93;4.37;;;24.80;60.80;;;;;;5016152;28;20018;-60
2021/07/24 10:13:56;;;;;;;11.27;5.00;;;24.80;60.20;;;;;;5016174;28;20037;-60
2021/07/24 10:16:24;;;;;;;6.65;4.68;;;24.80;60.40;;;;;;5015886;28;20490;-60
2021/07/24 10:18:54;;;;;;;7.43;4.75;;;24.80;60.40;;;;;;5015883;28;20422;-60
2021/07/24 10:21:20;;;;;;;4.97;4.40;;;24.80;60.40;;;;;;5015942;28;20409;-60
2021/07/24 10:23:46;;;;;;;6.35;4.80;;;24.70;60.40;;;;;;5015790;28;20022;-60
2021/07/24 10:26:25;;;;;;;7.05;5.20;;;24.70;60.50;;;;;;5015813;28;20029;-59
2021/07/24 10:29:05;;;;;;;8.48;4.85;;;24.70;60.60;;;;;;5015745;28;20026;-59
2021/07/24 10:31:53;;;;;;;9.57;5.28;;;24.80;60.70;;;;;;5015611;28;20022;-59
2021/07/24 10:34:25;;;;;;;7.95;5.40;;;24.80;61.00;;;;;;5015407;28;20073;-60
2021/07/24 10:36:51;;;;;;;12.93;6.30;;;24.70;61.00;;;;;;5015380;28;20351;-58
2021/07/24 10:39:16;;;;;;;8.32;5.50;;;24.70;61.20;;;;;;5015540;28;20092;-60
2021/07/24 10:41:43;;;;;;;13.65;6.47;;;24.40;90.30;;;;;;5015143;28;20057;-59
2021/07/24 10:44:41;;;;;;;10.07;7.50;;;24.70;61.20;;;;;;5015243;28;20022;-60
2021/07/24 10:47:08;;;;;;;10.20;6.57;;;24.80;61.30;;;;;;5015015;28;20117;-59
2021/07/24 10:49:33;;;;;;;13.77;8.40;;;24.70;61.30;;;;;;5014987;28;20037;-60
2021/07/24 10:51:59;;;;;;;12.90;8.52;;;24.70;61.70;;;;;;5015027;28;20030;-59
2021/07/24 10:54:26;;;;;;;14.40;7.93;;;24.70;61.70;;;;;;5014876;28;20042;-60
2021/07/24 10:56:52;;;;;;;15.10;8.48;;;24.80;61.70;;;;;;5014905;28;20022;-60
2021/07/24 10:59:21;;;;;;;12.88;9.23;;;24.70;91.10;;;;;;5015185;28;20481;-60
2021/07/24 11:01:49;;;;;;;11.80;7.43;;;24.70;61.80;;;;;;4997271;28;20509;-59
2021/07/24 11:04:36;;;;;;;13.20;7.70;;;24.70;61.70;;;;;;5014540;28;20030;-60
2021/07/24 11:07:33;;;;;;;11.40;8.02;;;24.70;62.10;;;;;;5013396;28;20063;-59
2021/07/24 11:10:06;;;;;;;13.48;8.57;;;24.70;62.10;;;;;;4997937;28;20033;-60
2021/07/24 11:12:41;;;;;;;10.38;7.45;;;24.70;62.30;;;;;;5013444;28;20543;-60
2021/07/24 11:15:07;;;;;;;14.20;8.50;;;24.80;62.60;;;;;;5014159;28;20038;-60
2021/07/24 11:17:33;;;;;;;11.82;8.10;;;24.70;62.00;;;;;;5014506;28;20041;-60
2021/07/24 11:20:04;;;;;;;10.77;7.95;;;24.80;62.00;;;;;;5014463;28;20033;-60
2021/07/24 11:22:30;;;;;;;14.20;8.88;;;24.70;61.60;;;;;;5014522;28;20022;-60
2021/07/24 11:24:56;;;;;;;13.05;7.32;;;24.70;62.10;;;;;;5014366;28;20026;-59
2021/07/24 11:27:28;;;;;;;13.05;8.10;;;25.00;62.10;;;;;;5014271;28;20100;-59
2021/07/24 11:30:03;;;;;;;12.05;7.40;;;24.70;62.20;;;;;;5014286;28;20140;-60
2021/07/24 11:32:31;;;;;;;18.00;8.85;;;24.70;61.80;;;;;;5014190;28;20025;-59
2021/07/24 11:35:13;;;;;;;10.55;8.50;;;24.60;61.90;;;;;;5013997;28;20038;-60
2021/07/24 11:37:46;;;;;;;13.65;7.95;;;24.70;61.70;;;;;;5014439;28;20034;-60
2021/07/24 11:40:32;;;;;;;15.07;7.95;;;24.40;91.30;;;;;;5014170;28;20034;-59
2021/07/24 11:42:59;;;;;;;10.88;7.30;;;24.70;91.30;;;;;;5014230;28;20030;-60
2021/07/24 11:45:26;;;;;;;16.02;7.82;;;24.70;62.00;;;;;;5014157;28;20022;-60
2021/07/24 11:48:16;;;;;;;11.60;7.80;;;24.50;91.10;;;;;;5013946;28;20029;-61
2021/07/24 11:50:43;;;;;;;12.13;7.65;;;24.70;62.20;;;;;;5014390;28;20094;-60
2021/07/24 11:53:12;;;;;;;11.95;7.28;;;25.00;62.80;;;;;;5014200;28;20068;-60
2021/07/24 11:55:41;;;;;;;19.02;7.45;;;25.10;62.80;;;;;;5013932;28;20038;-60
2021/07/24 11:58:09;;;;;;;12.15;8.20;;;24.90;62.80;;;;;;5013914;28;20044;-60
2021/07/24 12:00:38;;;;;;;15.52;8.43;;;24.80;62.80;;;;;;5013907;28;20109;-60
2021/07/24 12:03:24;;;;;;;16.58;7.88;;;24.80;63.00;;;;;;4996172;28;20045;-60
2021/07/24 12:06:10;;;;;;;11.10;7.35;;;25.00;92.40;;;;;;5013975;28;20029;-60
2021/07/24 12:08:39;;;;;;;13.88;7.40;;;24.80;63.00;;;;;;5013002;28;20120;-60
2021/07/24 12:11:10;;;;;;;12.70;8.10;;;24.60;92.40;;;;;;5013666;28;20029;-60
2021/07/24 12:13:36;;;;;;;14.27;8.02;;;25.00;63.30;;;;;;5013575;28;20422;-60
2021/07/24 12:16:05;;;;;;;12.60;8.27;;;24.70;92.30;;;;;;5013443;28;20026;-60
2021/07/24 12:18:44;;;;;;;14.85;8.13;;;25.10;92.50;;;;;;5013477;28;20100;-60
2021/07/24 12:21:20;;;;;;;14.00;7.40;;;24.90;63.40;;;;;;5013724;28;20021;-60
2021/07/24 12:23:56;;;;;;;17.23;9.68;;;24.70;92.50;;;;;;5012399;28;20064;-59
2021/07/24 12:26:33;;;;;;;17.80;11.20;;;24.80;62.40;;;;;;5013298;28;20034;-58
2021/07/24 12:29:08;;;;;;;15.82;9.88;;;24.50;92.60;;;;;;5013197;28;20101;-59
2021/07/24 12:31:42;;;;;;;15.38;11.50;;;24.80;92.10;;;;;;5013261;28;20025;-59
2021/07/24 12:34:21;;;;;;;18.02;12.18;;;24.90;92.40;;;;;;5013477;28;20045;-58
2021/07/24 12:36:51;;;;;;;15.53;11.00;;;24.80;62.80;;;;;;5013279;28;20022;-58
2021/07/24 12:39:18;;;;;;;;;;;24.80;63.80;;;;;;5013855;28;20299;-59
2021/07/24 12:41:44;;;;;;;17.80;12.43;;;24.90;63.80;;;;;;5013200;28;19963;-59
2021/07/24 12:44:10;;;;;;;18.55;12.88;;;24.30;92.50;;;;;;5013051;28;20486;-59
2021/07/24 12:46:39;;;;;;;17.27;12.38;;;24.70;64.10;;;;;;5013007;28;20034;-59
2021/07/24 12:49:06;;;;;;;19.98;11.98;;;24.50;92.50;;;;;;5013000;28;20030;-59
2021/07/24 12:51:36;;;;;;;16.70;11.35;;;24.70;64.40;;;;;;5013047;28;20544;-59